VOZ811 YMML-YSSY
Flight info
| Callsign | VOZ811 |
|---|---|
| Flight time | N/A |
| Altitude | 37000 |
| Route | ML H129 DOSEL Y59 RIVET |
| Aircraft | B38M/M-SDE1FGHILORVWXY/HB1 |
Departure
| Time | 2026-05-08 00:35 |
|---|---|
| Airport | Melbourne Airport (YMML) |
Arrival
| Time | N/A |
|---|---|
| Airport | Sydney Kingsford Smith International Airport (YSSY) |
| Time | Latitude | Longitude | Altitude | Speed | Heading |
|---|---|---|---|---|---|
| 2026-05-07 23:54 | -37.66842 | 144.84748 | 399 ft | 0 kts | 242° |
| 2026-05-08 00:23 | -37.66832 | 144.84771 | 399 ft | 4 kts | 242° |
| 2026-05-08 00:23 | -37.66820 | 144.84801 | 400 ft | 4 kts | 242° |
| 2026-05-08 00:23 | -37.66810 | 144.84832 | 400 ft | 4 kts | 252° |
| 2026-05-08 00:24 | -37.66804 | 144.84865 | 400 ft | 4 kts | 263° |
| 2026-05-08 00:24 | -37.66802 | 144.84887 | 401 ft | 1 kts | 263° |
| 2026-05-08 00:24 | -37.66801 | 144.84890 | 401 ft | 0 kts | 263° |
| 2026-05-08 00:27 | -37.66802 | 144.84882 | 401 ft | 4 kts | 264° |
| 2026-05-08 00:27 | -37.66740 | 144.84820 | 402 ft | 18 kts | 347° |
| 2026-05-08 00:27 | -37.66604 | 144.84799 | 406 ft | 20 kts | 359° |
| 2026-05-08 00:27 | -37.66470 | 144.84776 | 411 ft | 19 kts | 356° |
| 2026-05-08 00:28 | -37.66352 | 144.84785 | 411 ft | 8 kts | 3° |
| 2026-05-08 00:28 | -37.66346 | 144.84785 | 414 ft | 0 kts | 4° |
| 2026-05-08 00:31 | -37.66345 | 144.84785 | 414 ft | 1 kts | 4° |
| 2026-05-08 00:31 | -37.66317 | 144.84787 | 407 ft | 9 kts | 2° |
| 2026-05-08 00:32 | -37.66234 | 144.84768 | 412 ft | 14 kts | 311° |
| 2026-05-08 00:32 | -37.66224 | 144.84720 | 415 ft | 1 kts | 267° |
| 2026-05-08 00:32 | -37.66224 | 144.84719 | 415 ft | 0 kts | 267° |
| 2026-05-08 00:34 | -37.66224 | 144.84702 | 411 ft | 13 kts | 269° |
| 2026-05-08 00:34 | -37.66194 | 144.84194 | 412 ft | 102 kts | 274° |
| 2026-05-08 00:34 | -37.66130 | 144.82983 | 500 ft | 168 kts | 274° |
| 2026-05-08 00:35 | -37.66001 | 144.81394 | 1026 ft | 181 kts | 275° |
| 2026-05-08 00:35 | -37.65842 | 144.79824 | 1803 ft | 179 kts | 274° |
| 2026-05-08 00:35 | -37.65579 | 144.78319 | 2764 ft | 174 kts | 276° |
| 2026-05-08 00:35 | -37.65460 | 144.76703 | 3156 ft | 199 kts | 263° |
| 2026-05-08 00:36 | -37.65469 | 144.74815 | 3695 ft | 227 kts | 265° |
| 2026-05-08 00:36 | -37.65428 | 144.72755 | 4493 ft | 243 kts | 265° |
| 2026-05-08 00:36 | -37.65354 | 144.70612 | 5568 ft | 245 kts | 266° |
| 2026-05-08 00:36 | -37.65238 | 144.68448 | 6543 ft | 255 kts | 272° |
| 2026-05-08 00:37 | -37.64529 | 144.66320 | 7451 ft | 276 kts | 300° |
| 2026-05-08 00:37 | -37.63006 | 144.64700 | 8277 ft | 301 kts | 329° |
| 2026-05-08 00:37 | -37.60949 | 144.63967 | 9175 ft | 313 kts | 345° |
| 2026-05-08 00:38 | -37.56590 | 144.62619 | 10599 ft | 340 kts | 355° |
| 2026-05-08 00:38 | -37.54209 | 144.63068 | 11204 ft | 355 kts | 22° |
| 2026-05-08 00:38 | -37.52131 | 144.64744 | 11899 ft | 358 kts | 49° |
| 2026-05-08 00:38 | -37.50648 | 144.67175 | 12749 ft | 357 kts | 58° |
| 2026-05-08 00:39 | -37.49145 | 144.69710 | 13520 ft | 364 kts | 56° |
| 2026-05-08 00:39 | -37.47627 | 144.72262 | 14397 ft | 365 kts | 59° |
| 2026-05-08 00:39 | -37.46359 | 144.75048 | 15122 ft | 368 kts | 65° |
| 2026-05-08 00:39 | -37.45105 | 144.77886 | 15892 ft | 373 kts | 65° |
| 2026-05-08 00:40 | -37.43820 | 144.80735 | 16629 ft | 378 kts | 64° |
| 2026-05-08 00:40 | -37.42499 | 144.83630 | 17373 ft | 382 kts | 64° |
| 2026-05-08 00:40 | -37.41168 | 144.86525 | 18059 ft | 387 kts | 64° |
| 2026-05-08 00:40 | -37.39806 | 144.89476 | 18780 ft | 391 kts | 63° |
| 2026-05-08 00:41 | -37.38435 | 144.92445 | 19389 ft | 395 kts | 63° |
| 2026-05-08 00:41 | -37.37046 | 144.95446 | 20012 ft | 398 kts | 63° |
| 2026-05-08 00:41 | -37.35648 | 144.98466 | 20624 ft | 401 kts | 63° |
| 2026-05-08 00:41 | -37.34233 | 145.01520 | 21207 ft | 406 kts | 63° |
| 2026-05-08 00:42 | -37.32805 | 145.04599 | 21748 ft | 411 kts | 63° |
| 2026-05-08 00:42 | -37.31361 | 145.07710 | 22332 ft | 414 kts | 63° |
| 2026-05-08 00:42 | -37.29923 | 145.10803 | 22900 ft | 418 kts | 63° |
| 2026-05-08 00:42 | -37.28457 | 145.13954 | 23450 ft | 421 kts | 63° |
| 2026-05-08 00:43 | -37.26973 | 145.17141 | 23975 ft | 425 kts | 63° |
| 2026-05-08 00:43 | -37.25475 | 145.20356 | 24425 ft | 428 kts | 63° |
| 2026-05-08 00:43 | -37.23967 | 145.23589 | 24892 ft | 431 kts | 63° |
| 2026-05-08 00:43 | -37.22448 | 145.26842 | 25368 ft | 433 kts | 63° |
| 2026-05-08 00:44 | -37.20917 | 145.30117 | 25786 ft | 437 kts | 63° |
| 2026-05-08 00:44 | -37.19369 | 145.33425 | 26217 ft | 440 kts | 63° |
| 2026-05-08 00:44 | -37.17815 | 145.36744 | 26649 ft | 443 kts | 63° |
| 2026-05-08 00:44 | -37.16194 | 145.40026 | 27059 ft | 448 kts | 56° |
| 2026-05-08 00:45 | -37.14320 | 145.43167 | 27498 ft | 450 kts | 56° |
| 2026-05-08 00:45 | -37.12468 | 145.46340 | 27911 ft | 453 kts | 57° |
| 2026-05-08 00:45 | -37.10614 | 145.49552 | 28333 ft | 456 kts | 57° |
| 2026-05-08 00:45 | -37.08755 | 145.52787 | 28765 ft | 458 kts | 57° |
| 2026-05-08 00:46 | -37.06887 | 145.56041 | 29137 ft | 462 kts | 57° |
| 2026-05-08 00:46 | -37.05029 | 145.59276 | 29506 ft | 465 kts | 57° |
| 2026-05-08 00:46 | -37.03139 | 145.62563 | 29907 ft | 467 kts | 57° |
| 2026-05-08 00:46 | -37.01247 | 145.65852 | 30264 ft | 470 kts | 57° |
| 2026-05-08 00:47 | -36.99330 | 145.69179 | 30606 ft | 472 kts | 57° |
| 2026-05-08 00:47 | -36.97406 | 145.72517 | 30932 ft | 474 kts | 57° |
| 2026-05-08 00:47 | -36.95470 | 145.75871 | 31260 ft | 476 kts | 57° |
| 2026-05-08 00:47 | -36.93526 | 145.79238 | 31616 ft | 478 kts | 57° |
| 2026-05-08 00:48 | -36.91572 | 145.82617 | 31870 ft | 482 kts | 57° |
| 2026-05-08 00:48 | -36.89601 | 145.86021 | 32185 ft | 484 kts | 57° |
| 2026-05-08 00:48 | -36.87629 | 145.89426 | 32495 ft | 486 kts | 57° |
| 2026-05-08 00:48 | -36.85647 | 145.92842 | 32804 ft | 488 kts | 57° |
| 2026-05-08 00:49 | -36.83651 | 145.96280 | 33102 ft | 490 kts | 57° |
| 2026-05-08 00:49 | -36.81648 | 145.99727 | 33400 ft | 492 kts | 57° |
| 2026-05-08 00:49 | -36.79639 | 146.03180 | 33705 ft | 493 kts | 57° |
| 2026-05-08 00:49 | -36.77614 | 146.06657 | 34011 ft | 496 kts | 57° |
| 2026-05-08 00:50 | -36.75581 | 146.10144 | 34264 ft | 498 kts | 57° |
| 2026-05-08 00:50 | -36.73545 | 146.13633 | 34592 ft | 497 kts | 57° |
| 2026-05-08 00:50 | -36.71520 | 146.17100 | 34978 ft | 496 kts | 57° |
| 2026-05-08 00:50 | -36.69495 | 146.20564 | 35345 ft | 494 kts | 56° |
| 2026-05-08 00:51 | -36.67477 | 146.24009 | 35699 ft | 492 kts | 56° |
| 2026-05-08 00:51 | -36.65457 | 146.27458 | 36048 ft | 491 kts | 56° |
| 2026-05-08 00:51 | -36.63446 | 146.30886 | 36397 ft | 489 kts | 56° |
| 2026-05-08 00:51 | -36.61441 | 146.34302 | 36742 ft | 488 kts | 56° |
| 2026-05-08 00:52 | -36.59439 | 146.37708 | 37012 ft | 488 kts | 56° |
| 2026-05-08 00:52 | -36.57442 | 146.41103 | 37234 ft | 488 kts | 56° |
| 2026-05-08 00:52 | -36.55438 | 146.44505 | 37248 ft | 487 kts | 56° |
| 2026-05-08 00:53 | -36.51445 | 146.51275 | 37226 ft | 484 kts | 56° |
| 2026-05-08 00:53 | -36.47451 | 146.58033 | 37219 ft | 485 kts | 56° |
| 2026-05-08 00:54 | -36.43449 | 146.64792 | 37228 ft | 486 kts | 56° |
| 2026-05-08 00:54 | -36.39478 | 146.71486 | 37226 ft | 485 kts | 56° |
| 2026-05-08 00:55 | -36.35471 | 146.78225 | 37218 ft | 485 kts | 55° |
| 2026-05-08 00:55 | -36.31463 | 146.84955 | 37255 ft | 485 kts | 55° |
| 2026-05-08 00:56 | -36.28117 | 146.90563 | 37224 ft | 487 kts | 55° |
| 2026-05-08 00:56 | -36.24091 | 146.97300 | 37232 ft | 488 kts | 55° |
| 2026-05-08 00:57 | -36.20051 | 147.04050 | 37219 ft | 487 kts | 54° |
| 2026-05-08 00:57 | -36.16005 | 147.10785 | 37225 ft | 488 kts | 54° |
| 2026-05-08 00:58 | -36.11947 | 147.17516 | 37177 ft | 488 kts | 54° |
| 2026-05-08 00:58 | -36.07870 | 147.24263 | 37213 ft | 491 kts | 54° |
| 2026-05-08 00:59 | -36.03796 | 147.30997 | 37247 ft | 488 kts | 54° |
| 2026-05-08 00:59 | -35.99724 | 147.37717 | 37237 ft | 488 kts | 53° |
| 2026-05-08 01:00 | -35.95649 | 147.44427 | 37242 ft | 491 kts | 54° |